sensor_id;sensor_type;location;lat;lon;timestamp;P1;durP1;ratioP1;P2;durP2;ratioP2
74894;SDS011;63447;49.446;8.666;2022-10-23T00:02:00;4.27;;;1.30;;
74894;SDS011;63447;49.446;8.666;2022-10-23T00:04:26;4.47;;;1.60;;
74894;SDS011;63447;49.446;8.666;2022-10-23T00:06:52;5.32;;;1.70;;
74894;SDS011;63447;49.446;8.666;2022-10-23T00:09:19;4.30;;;1.23;;
74894;SDS011;63447;49.446;8.666;2022-10-23T00:11:46;4.15;;;1.40;;
74894;SDS011;63447;49.446;8.666;2022-10-23T00:14:14;6.20;;;1.58;;
74894;SDS011;63447;49.446;8.666;2022-10-23T00:16:43;6.35;;;1.70;;
74894;SDS011;63447;49.446;8.666;2022-10-23T00:19:09;7.40;;;1.65;;
74894;SDS011;63447;49.446;8.666;2022-10-23T00:21:35;6.65;;;1.48;;
74894;SDS011;63447;49.446;8.666;2022-10-23T00:24:00;4.37;;;1.20;;
74894;SDS011;63447;49.446;8.666;2022-10-23T00:26:25;4.60;;;1.27;;
74894;SDS011;63447;49.446;8.666;2022-10-23T00:28:52;3.85;;;1.17;;
74894;SDS011;63447;49.446;8.666;2022-10-23T00:31:18;5.65;;;1.40;;
74894;SDS011;63447;49.446;8.666;2022-10-23T00:33:45;5.07;;;1.50;;
74894;SDS011;63447;49.446;8.666;2022-10-23T00:36:11;10.75;;;2.00;;
74894;SDS011;63447;49.446;8.666;2022-10-23T00:38:38;5.78;;;1.92;;
74894;SDS011;63447;49.446;8.666;2022-10-23T00:41:04;5.28;;;1.80;;
74894;SDS011;63447;49.446;8.666;2022-10-23T00:43:30;6.32;;;2.95;;
74894;SDS011;63447;49.446;8.666;2022-10-23T00:45:57;5.15;;;2.03;;
74894;SDS011;63447;49.446;8.666;2022-10-23T00:48:22;5.07;;;1.80;;
74894;SDS011;63447;49.446;8.666;2022-10-23T00:50:50;6.28;;;1.63;;
74894;SDS011;63447;49.446;8.666;2022-10-23T00:53:16;6.57;;;1.95;;
74894;SDS011;63447;49.446;8.666;2022-10-23T00:55:43;4.85;;;1.73;;
74894;SDS011;63447;49.446;8.666;2022-10-23T00:58:12;5.20;;;1.65;;
74894;SDS011;63447;49.446;8.666;2022-10-23T01:00:46;6.45;;;2.20;;
74894;SDS011;63447;49.446;8.666;2022-10-23T01:03:19;7.05;;;2.00;;
74894;SDS011;63447;49.446;8.666;2022-10-23T01:06:02;5.68;;;1.92;;
74894;SDS011;63447;49.446;8.666;2022-10-23T01:08:37;6.95;;;2.10;;
74894;SDS011;63447;49.446;8.666;2022-10-23T01:13:42;6.68;;;2.08;;
74894;SDS011;63447;49.446;8.666;2022-10-23T01:16:21;7.13;;;2.20;;
74894;SDS011;63447;49.446;8.666;2022-10-23T01:19:10;7.68;;;2.40;;
74894;SDS011;63447;49.446;8.666;2022-10-23T01:21:53;5.93;;;2.33;;
74894;SDS011;63447;49.446;8.666;2022-10-23T01:27:15;6.05;;;2.10;;
74894;SDS011;63447;49.446;8.666;2022-10-23T01:29:45;6.00;;;2.30;;
74894;SDS011;63447;49.446;8.666;2022-10-23T01:32:47;6.32;;;2.13;;
74894;SDS011;63447;49.446;8.666;2022-10-23T01:35:20;6.18;;;2.00;;
74894;SDS011;63447;49.446;8.666;2022-10-23T01:43:15;8.43;;;2.70;;
74894;SDS011;63447;49.446;8.666;2022-10-23T01:45:52;7.50;;;2.45;;
74894;SDS011;63447;49.446;8.666;2022-10-23T01:48:30;7.85;;;2.90;;
74894;SDS011;63447;49.446;8.666;2022-10-23T01:50:59;6.15;;;2.45;;
74894;SDS011;63447;49.446;8.666;2022-10-23T01:53:29;7.78;;;2.80;;
74894;SDS011;63447;49.446;8.666;2022-10-23T01:55:55;7.45;;;3.15;;
74894;SDS011;63447;49.446;8.666;2022-10-23T01:58:26;8.98;;;3.28;;
74894;SDS011;63447;49.446;8.666;2022-10-23T02:00:55;5.63;;;2.67;;
74894;SDS011;63447;49.446;8.666;2022-10-23T02:03:25;7.38;;;2.30;;
74894;SDS011;63447;49.446;8.666;2022-10-23T02:05:57;5.97;;;2.28;;
74894;SDS011;63447;49.446;8.666;2022-10-23T02:08:22;8.35;;;3.05;;
74894;SDS011;63447;49.446;8.666;2022-10-23T02:19:09;4.95;;;2.35;;
74894;SDS011;63447;49.446;8.666;2022-10-23T02:22:08;7.80;;;2.67;;
74894;SDS011;63447;49.446;8.666;2022-10-23T02:24:38;7.43;;;2.50;;
74894;SDS011;63447;49.446;8.666;2022-10-23T02:27:14;7.15;;;2.78;;
74894;SDS011;63447;49.446;8.666;2022-10-23T02:29:50;7.82;;;3.30;;
74894;SDS011;63447;49.446;8.666;2022-10-23T02:32:22;10.57;;;3.03;;
74894;SDS011;63447;49.446;8.666;2022-10-23T02:34:53;7.03;;;2.80;;
74894;SDS011;63447;49.446;8.666;2022-10-23T02:37:20;5.53;;;2.60;;
74894;SDS011;63447;49.446;8.666;2022-10-23T02:39:49;7.95;;;2.95;;
74894;SDS011;63447;49.446;8.666;2022-10-23T02:42:21;9.50;;;2.35;;
74894;SDS011;63447;49.446;8.666;2022-10-23T02:53:17;8.20;;;2.80;;
74894;SDS011;63447;49.446;8.666;2022-10-23T02:58:43;6.88;;;2.28;;
74894;SDS011;63447;49.446;8.666;2022-10-23T03:01:10;5.55;;;2.13;;
74894;SDS011;63447;49.446;8.666;2022-10-23T03:03:40;6.43;;;3.00;;
74894;SDS011;63447;49.446;8.666;2022-10-23T03:06:11;5.63;;;2.40;;
74894;SDS011;63447;49.446;8.666;2022-10-23T03:08:41;6.40;;;2.28;;
74894;SDS011;63447;49.446;8.666;2022-10-23T03:11:07;5.68;;;2.50;;
74894;SDS011;63447;49.446;8.666;2022-10-23T03:13:33;9.30;;;2.30;;
74894;SDS011;63447;49.446;8.666;2022-10-23T03:15:58;6.03;;;2.10;;
74894;SDS011;63447;49.446;8.666;2022-10-23T03:18:26;6.20;;;2.55;;
74894;SDS011;63447;49.446;8.666;2022-10-23T03:20:52;6.90;;;2.92;;
74894;SDS011;63447;49.446;8.666;2022-10-23T03:23:17;7.53;;;2.00;;
74894;SDS011;63447;49.446;8.666;2022-10-23T03:25:42;5.65;;;2.00;;
74894;SDS011;63447;49.446;8.666;2022-10-23T03:28:08;6.70;;;2.00;;
74894;SDS011;63447;49.446;8.666;2022-10-23T03:30:35;5.45;;;2.20;;
74894;SDS011;63447;49.446;8.666;2022-10-23T03:33:01;5.75;;;2.00;;
74894;SDS011;63447;49.446;8.666;2022-10-23T03:35:26;7.80;;;2.33;;
74894;SDS011;63447;49.446;8.666;2022-10-23T03:37:54;6.75;;;2.10;;
74894;SDS011;63447;49.446;8.666;2022-10-23T03:40:19;5.97;;;2.47;;
74894;SDS011;63447;49.446;8.666;2022-10-23T03:42:44;5.87;;;2.40;;
74894;SDS011;63447;49.446;8.666;2022-10-23T03:45:10;6.23;;;2.50;;
74894;SDS011;63447;49.446;8.666;2022-10-23T03:47:37;8.57;;;2.63;;
74894;SDS011;63447;49.446;8.666;2022-10-23T03:50:06;6.82;;;3.10;;
74894;SDS011;63447;49.446;8.666;2022-10-23T03:52:52;8.93;;;2.85;;
74894;SDS011;63447;49.446;8.666;2022-10-23T03:55:19;9.63;;;3.47;;
74894;SDS011;63447;49.446;8.666;2022-10-23T03:57:49;7.20;;;2.92;;
74894;SDS011;63447;49.446;8.666;2022-10-23T04:00:14;6.67;;;2.50;;
74894;SDS011;63447;49.446;8.666;2022-10-23T04:02:42;7.93;;;3.35;;
74894;SDS011;63447;49.446;8.666;2022-10-23T04:05:08;8.25;;;2.55;;
74894;SDS011;63447;49.446;8.666;2022-10-23T04:07:36;5.63;;;2.55;;
74894;SDS011;63447;49.446;8.666;2022-10-23T04:10:01;6.20;;;2.47;;
74894;SDS011;63447;49.446;8.666;2022-10-23T04:12:28;8.88;;;2.40;;
74894;SDS011;63447;49.446;8.666;2022-10-23T04:14:53;5.90;;;2.53;;
74894;SDS011;63447;49.446;8.666;2022-10-23T04:17:18;6.80;;;2.53;;
74894;SDS011;63447;49.446;8.666;2022-10-23T04:19:46;7.35;;;2.92;;
74894;SDS011;63447;49.446;8.666;2022-10-23T04:22:11;11.40;;;2.97;;
74894;SDS011;63447;49.446;8.666;2022-10-23T04:24:39;7.57;;;2.92;;
74894;SDS011;63447;49.446;8.666;2022-10-23T04:27:10;6.80;;;2.97;;
74894;SDS011;63447;49.446;8.666;2022-10-23T04:29:36;7.88;;;3.08;;
74894;SDS011;63447;49.446;8.666;2022-10-23T04:32:03;7.18;;;2.58;;
74894;SDS011;63447;49.446;8.666;2022-10-23T04:34:33;8.77;;;2.78;;
74894;SDS011;63447;49.446;8.666;2022-10-23T04:36:58;8.27;;;3.17;;
74894;SDS011;63447;49.446;8.666;2022-10-23T04:39:24;8.88;;;3.90;;
74894;SDS011;63447;49.446;8.666;2022-10-23T04:41:49;8.80;;;3.83;;
74894;SDS011;63447;49.446;8.666;2022-10-23T04:44:17;6.45;;;2.88;;
74894;SDS011;63447;49.446;8.666;2022-10-23T04:46:43;7.03;;;3.35;;
74894;SDS011;63447;49.446;8.666;2022-10-23T04:49:10;9.38;;;3.67;;
74894;SDS011;63447;49.446;8.666;2022-10-23T04:51:36;8.67;;;3.50;;
74894;SDS011;63447;49.446;8.666;2022-10-23T04:54:02;7.70;;;3.50;;
74894;SDS011;63447;49.446;8.666;2022-10-23T04:56:28;5.40;;;3.20;;
74894;SDS011;63447;49.446;8.666;2022-10-23T04:58:53;7.80;;;2.97;;
74894;SDS011;63447;49.446;8.666;2022-10-23T05:01:18;7.33;;;3.17;;
74894;SDS011;63447;49.446;8.666;2022-10-23T05:03:44;9.43;;;3.70;;
74894;SDS011;63447;49.446;8.666;2022-10-23T05:06:09;7.80;;;3.73;;
74894;SDS011;63447;49.446;8.666;2022-10-23T05:08:35;6.13;;;3.27;;
74894;SDS011;63447;49.446;8.666;2022-10-23T05:11:00;8.97;;;3.03;;
74894;SDS011;63447;49.446;8.666;2022-10-23T05:13:25;7.45;;;2.88;;
74894;SDS011;63447;49.446;8.666;2022-10-23T05:15:51;7.82;;;3.38;;
74894;SDS011;63447;49.446;8.666;2022-10-23T05:20:49;11.75;;;3.50;;
74894;SDS011;63447;49.446;8.666;2022-10-23T05:23:18;6.47;;;3.28;;
74894;SDS011;63447;49.446;8.666;2022-10-23T05:25:46;8.30;;;4.07;;
74894;SDS011;63447;49.446;8.666;2022-10-23T05:28:11;9.60;;;4.07;;
74894;SDS011;63447;49.446;8.666;2022-10-23T05:30:37;7.75;;;3.78;;
74894;SDS011;63447;49.446;8.666;2022-10-23T05:33:03;9.02;;;4.13;;
74894;SDS011;63447;49.446;8.666;2022-10-23T05:35:29;9.43;;;3.53;;
74894;SDS011;63447;49.446;8.666;2022-10-23T05:37:55;8.18;;;3.25;;
74894;SDS011;63447;49.446;8.666;2022-10-23T05:40:23;9.75;;;3.92;;
74894;SDS011;63447;49.446;8.666;2022-10-23T05:42:51;9.20;;;4.32;;
74894;SDS011;63447;49.446;8.666;2022-10-23T05:45:17;9.57;;;3.83;;
74894;SDS011;63447;49.446;8.666;2022-10-23T05:47:43;8.67;;;3.83;;
74894;SDS011;63447;49.446;8.666;2022-10-23T05:50:09;10.18;;;4.32;;
74894;SDS011;63447;49.446;8.666;2022-10-23T05:52:34;7.53;;;4.10;;
74894;SDS011;63447;49.446;8.666;2022-10-23T05:55:02;7.85;;;3.72;;
74894;SDS011;63447;49.446;8.666;2022-10-23T05:57:30;8.02;;;3.22;;
74894;SDS011;63447;49.446;8.666;2022-10-23T05:59:56;9.77;;;4.00;;
74894;SDS011;63447;49.446;8.666;2022-10-23T06:02:21;8.10;;;3.63;;
74894;SDS011;63447;49.446;8.666;2022-10-23T06:04:49;10.52;;;3.95;;
74894;SDS011;63447;49.446;8.666;2022-10-23T06:07:15;10.52;;;4.40;;
74894;SDS011;63447;49.446;8.666;2022-10-23T06:09:40;12.75;;;6.55;;
74894;SDS011;63447;49.446;8.666;2022-10-23T06:12:05;8.47;;;4.00;;
74894;SDS011;63447;49.446;8.666;2022-10-23T06:14:31;8.10;;;3.72;;
74894;SDS011;63447;49.446;8.666;2022-10-23T06:16:56;8.47;;;3.93;;
74894;SDS011;63447;49.446;8.666;2022-10-23T06:19:21;10.07;;;3.67;;
74894;SDS011;63447;49.446;8.666;2022-10-23T06:21:47;8.50;;;3.60;;
74894;SDS011;63447;49.446;8.666;2022-10-23T06:24:12;10.03;;;3.67;;
74894;SDS011;63447;49.446;8.666;2022-10-23T06:26:37;8.90;;;3.93;;
74894;SDS011;63447;49.446;8.666;2022-10-23T06:29:03;6.77;;;3.50;;
74894;SDS011;63447;49.446;8.666;2022-10-23T06:31:28;7.28;;;3.35;;
74894;SDS011;63447;49.446;8.666;2022-10-23T06:33:58;7.53;;;3.42;;
74894;SDS011;63447;49.446;8.666;2022-10-23T06:36:24;9.48;;;4.20;;
74894;SDS011;63447;49.446;8.666;2022-10-23T06:38:50;7.80;;;3.50;;
74894;SDS011;63447;49.446;8.666;2022-10-23T06:41:20;12.43;;;3.47;;
74894;SDS011;63447;49.446;8.666;2022-10-23T06:43:46;9.52;;;3.95;;
74894;SDS011;63447;49.446;8.666;2022-10-23T06:46:16;7.93;;;3.25;;
74894;SDS011;63447;49.446;8.666;2022-10-23T06:48:42;9.18;;;3.72;;
74894;SDS011;63447;49.446;8.666;2022-10-23T06:51:09;7.97;;;3.45;;
74894;SDS011;63447;49.446;8.666;2022-10-23T06:53:40;6.97;;;4.15;;
74894;SDS011;63447;49.446;8.666;2022-10-23T06:56:06;7.45;;;3.83;;
74894;SDS011;63447;49.446;8.666;2022-10-23T06:58:33;8.10;;;3.47;;
74894;SDS011;63447;49.446;8.666;2022-10-23T07:01:00;7.13;;;3.63;;
74894;SDS011;63447;49.446;8.666;2022-10-23T07:03:28;9.80;;;3.42;;
74894;SDS011;63447;49.446;8.666;2022-10-23T07:05:54;9.25;;;3.92;;
74894;SDS011;63447;49.446;8.666;2022-10-23T07:08:19;7.68;;;3.42;;
74894;SDS011;63447;49.446;8.666;2022-10-23T07:10:45;7.30;;;3.33;;
74894;SDS011;63447;49.446;8.666;2022-10-23T07:13:11;8.82;;;3.63;;
74894;SDS011;63447;49.446;8.666;2022-10-23T07:15:37;8.30;;;3.78;;
74894;SDS011;63447;49.446;8.666;2022-10-23T07:18:03;7.10;;;3.40;;
74894;SDS011;63447;49.446;8.666;2022-10-23T07:20:38;8.38;;;3.60;;
74894;SDS011;63447;49.446;8.666;2022-10-23T07:23:03;8.75;;;3.40;;
74894;SDS011;63447;49.446;8.666;2022-10-23T07:25:31;6.80;;;3.38;;
74894;SDS011;63447;49.446;8.666;2022-10-23T07:27:57;6.68;;;3.25;;
74894;SDS011;63447;49.446;8.666;2022-10-23T07:30:22;12.57;;;4.28;;
74894;SDS011;63447;49.446;8.666;2022-10-23T07:32:50;9.07;;;3.97;;
74894;SDS011;63447;49.446;8.666;2022-10-23T07:35:16;6.97;;;3.72;;
74894;SDS011;63447;49.446;8.666;2022-10-23T07:37:41;7.30;;;3.53;;
74894;SDS011;63447;49.446;8.666;2022-10-23T07:40:07;9.00;;;3.67;;
74894;SDS011;63447;49.446;8.666;2022-10-23T07:42:33;8.60;;;3.97;;
74894;SDS011;63447;49.446;8.666;2022-10-23T07:44:58;7.28;;;3.63;;
74894;SDS011;63447;49.446;8.666;2022-10-23T07:47:23;6.17;;;3.13;;
74894;SDS011;63447;49.446;8.666;2022-10-23T07:49:49;8.73;;;3.63;;
74894;SDS011;63447;49.446;8.666;2022-10-23T07:52:17;9.45;;;3.83;;
74894;SDS011;63447;49.446;8.666;2022-10-23T07:54:42;8.03;;;3.30;;
74894;SDS011;63447;49.446;8.666;2022-10-23T07:57:10;6.88;;;3.72;;
74894;SDS011;63447;49.446;8.666;2022-10-23T07:59:36;9.35;;;3.35;;
74894;SDS011;63447;49.446;8.666;2022-10-23T08:02:08;8.32;;;3.35;;
74894;SDS011;63447;49.446;8.666;2022-10-23T08:04:35;8.25;;;4.03;;
74894;SDS011;63447;49.446;8.666;2022-10-23T08:07:00;7.87;;;3.63;;
74894;SDS011;63447;49.446;8.666;2022-10-23T08:09:25;8.25;;;3.80;;
74894;SDS011;63447;49.446;8.666;2022-10-23T08:11:51;11.83;;;4.10;;
74894;SDS011;63447;49.446;8.666;2022-10-23T08:14:18;6.55;;;3.60;;
74894;SDS011;63447;49.446;8.666;2022-10-23T08:16:46;8.30;;;3.83;;
74894;SDS011;63447;49.446;8.666;2022-10-23T08:19:11;12.10;;;4.28;;
74894;SDS011;63447;49.446;8.666;2022-10-23T08:21:37;9.00;;;4.25;;
74894;SDS011;63447;49.446;8.666;2022-10-23T08:24:02;8.18;;;3.55;;
74894;SDS011;63447;49.446;8.666;2022-10-23T08:26:28;10.60;;;4.82;;
74894;SDS011;63447;49.446;8.666;2022-10-23T08:28:59;8.75;;;3.70;;
74894;SDS011;63447;49.446;8.666;2022-10-23T08:31:25;7.00;;;3.88;;
74894;SDS011;63447;49.446;8.666;2022-10-23T08:33:50;6.93;;;3.90;;
74894;SDS011;63447;49.446;8.666;2022-10-23T08:36:17;9.07;;;4.30;;
74894;SDS011;63447;49.446;8.666;2022-10-23T08:38:50;9.15;;;4.20;;
74894;SDS011;63447;49.446;8.666;2022-10-23T08:41:35;10.65;;;4.68;;
74894;SDS011;63447;49.446;8.666;2022-10-23T08:47:04;8.13;;;4.32;;
74894;SDS011;63447;49.446;8.666;2022-10-23T08:49:44;10.27;;;5.40;;
74894;SDS011;63447;49.446;8.666;2022-10-23T08:57:59;8.27;;;3.75;;
74894;SDS011;63447;49.446;8.666;2022-10-23T09:00:29;8.07;;;4.22;;
74894;SDS011;63447;49.446;8.666;2022-10-23T09:02:55;7.60;;;3.63;;
74894;SDS011;63447;49.446;8.666;2022-10-23T09:05:26;7.90;;;3.70;;
74894;SDS011;63447;49.446;8.666;2022-10-23T09:19:23;6.80;;;3.50;;
74894;SDS011;63447;49.446;8.666;2022-10-23T09:21:52;8.20;;;3.35;;
74894;SDS011;63447;49.446;8.666;2022-10-23T09:24:20;8.43;;;3.50;;
74894;SDS011;63447;49.446;8.666;2022-10-23T09:26:48;7.03;;;3.33;;
74894;SDS011;63447;49.446;8.666;2022-10-23T09:29:26;11.43;;;3.90;;
74894;SDS011;63447;49.446;8.666;2022-10-23T09:32:01;7.25;;;3.38;;
74894;SDS011;63447;49.446;8.666;2022-10-23T09:34:30;6.85;;;3.17;;
74894;SDS011;63447;49.446;8.666;2022-10-23T09:36:58;7.78;;;3.20;;
74894;SDS011;63447;49.446;8.666;2022-10-23T09:39:29;8.30;;;3.20;;
74894;SDS011;63447;49.446;8.666;2022-10-23T09:41:56;8.05;;;3.65;;
74894;SDS011;63447;49.446;8.666;2022-10-23T09:44:27;8.90;;;3.13;;
74894;SDS011;63447;49.446;8.666;2022-10-23T09:46:58;6.80;;;3.35;;
74894;SDS011;63447;49.446;8.666;2022-10-23T09:49:33;8.00;;;3.30;;
74894;SDS011;63447;49.446;8.666;2022-10-23T09:57:51;9.52;;;3.60;;
74894;SDS011;63447;49.446;8.666;2022-10-23T10:08:02;7.40;;;3.53;;
74894;SDS011;63447;49.446;8.666;2022-10-23T10:10:41;7.90;;;3.30;;
74894;SDS011;63447;49.446;8.666;2022-10-23T10:16:02;7.45;;;3.50;;
74894;SDS011;63447;49.446;8.666;2022-10-23T10:18:50;7.63;;;3.42;;
74894;SDS011;63447;49.446;8.666;2022-10-23T10:21:38;9.10;;;3.40;;
74894;SDS011;63447;49.446;8.666;2022-10-23T10:24:18;7.47;;;2.78;;
74894;SDS011;63447;49.446;8.666;2022-10-23T10:29:41;9.10;;;3.35;;
74894;SDS011;63447;49.446;8.666;2022-10-23T10:32:30;8.95;;;3.80;;
74894;SDS011;63447;49.446;8.666;2022-10-23T10:45:56;6.90;;;3.30;;
74894;SDS011;63447;49.446;8.666;2022-10-23T10:48:37;10.13;;;3.65;;
74894;SDS011;63447;49.446;8.666;2022-10-23T10:51:26;9.77;;;3.45;;
74894;SDS011;63447;49.446;8.666;2022-10-23T10:56:42;8.85;;;2.80;;
74894;SDS011;63447;49.446;8.666;2022-10-23T10:59:11;7.05;;;2.85;;
74894;SDS011;63447;49.446;8.666;2022-10-23T11:04:34;4.90;;;1.65;;
74894;SDS011;63447;49.446;8.666;2022-10-23T11:09:29;8.68;;;3.00;;
74894;SDS011;63447;49.446;8.666;2022-10-23T11:11:55;6.05;;;3.08;;
74894;SDS011;63447;49.446;8.666;2022-10-23T11:14:29;8.63;;;2.92;;
74894;SDS011;63447;49.446;8.666;2022-10-23T11:33:26;8.00;;;2.92;;
74894;SDS011;63447;49.446;8.666;2022-10-23T11:38:38;7.55;;;2.95;;
74894;SDS011;63447;49.446;8.666;2022-10-23T11:43:50;6.32;;;2.50;;
74894;SDS011;63447;49.446;8.666;2022-10-23T11:48:51;7.60;;;2.93;;
74894;SDS011;63447;49.446;8.666;2022-10-23T11:51:28;7.53;;;2.95;;
74894;SDS011;63447;49.446;8.666;2022-10-23T11:56:51;8.52;;;2.90;;
74894;SDS011;63447;49.446;8.666;2022-10-23T11:59:32;6.75;;;3.30;;
74894;SDS011;63447;49.446;8.666;2022-10-23T12:01:59;5.40;;;2.75;;
74894;SDS011;63447;49.446;8.666;2022-10-23T12:04:29;5.57;;;2.53;;
74894;SDS011;63447;49.446;8.666;2022-10-23T12:07:01;5.13;;;2.58;;
74894;SDS011;63447;49.446;8.666;2022-10-23T12:09:39;5.60;;;2.25;;
74894;SDS011;63447;49.446;8.666;2022-10-23T12:14:34;5.77;;;2.30;;
74894;SDS011;63447;49.446;8.666;2022-10-23T12:22:27;5.67;;;2.13;;
74894;SDS011;63447;49.446;8.666;2022-10-23T12:28:18;5.65;;;1.80;;
74894;SDS011;63447;49.446;8.666;2022-10-23T12:38:55;5.00;;;1.92;;
74894;SDS011;63447;49.446;8.666;2022-10-23T12:41:26;5.15;;;1.65;;
74894;SDS011;63447;49.446;8.666;2022-10-23T12:48:54;4.15;;;1.38;;
74894;SDS011;63447;49.446;8.666;2022-10-23T12:51:23;3.10;;;1.15;;
74894;SDS011;63447;49.446;8.666;2022-10-23T12:53:53;3.63;;;1.40;;
74894;SDS011;63447;49.446;8.666;2022-10-23T12:56:21;4.43;;;1.13;;
74894;SDS011;63447;49.446;8.666;2022-10-23T12:58:50;3.97;;;1.00;;
74894;SDS011;63447;49.446;8.666;2022-10-23T13:01:25;4.00;;;0.93;;
74894;SDS011;63447;49.446;8.666;2022-10-23T13:04:07;3.80;;;0.73;;
74894;SDS011;63447;49.446;8.666;2022-10-23T13:06:34;3.30;;;0.85;;
74894;SDS011;63447;49.446;8.666;2022-10-23T13:09:02;3.78;;;0.90;;
74894;SDS011;63447;49.446;8.666;2022-10-23T13:11:29;3.38;;;0.70;;
74894;SDS011;63447;49.446;8.666;2022-10-23T13:13:56;3.95;;;0.90;;
74894;SDS011;63447;49.446;8.666;2022-10-23T13:16:22;2.90;;;0.70;;
74894;SDS011;63447;49.446;8.666;2022-10-23T13:18:49;6.68;;;0.95;;
74894;SDS011;63447;49.446;8.666;2022-10-23T13:21:27;1.73;;;0.60;;
74894;SDS011;63447;49.446;8.666;2022-10-23T13:23:53;4.25;;;0.60;;
74894;SDS011;63447;49.446;8.666;2022-10-23T13:28:56;3.28;;;0.80;;
74894;SDS011;63447;49.446;8.666;2022-10-23T13:31:33;3.00;;;0.90;;
74894;SDS011;63447;49.446;8.666;2022-10-23T13:36:26;4.10;;;0.83;;
74894;SDS011;63447;49.446;8.666;2022-10-23T13:41:43;3.53;;;0.90;;
74894;SDS011;63447;49.446;8.666;2022-10-23T13:44:14;3.45;;;1.05;;
74894;SDS011;63447;49.446;8.666;2022-10-23T13:46:42;3.65;;;0.93;;
74894;SDS011;63447;49.446;8.666;2022-10-23T13:49:09;4.20;;;0.82;;
74894;SDS011;63447;49.446;8.666;2022-10-23T13:51:43;3.60;;;0.80;;
74894;SDS011;63447;49.446;8.666;2022-10-23T13:54:13;8.00;;;4.40;;
74894;SDS011;63447;49.446;8.666;2022-10-23T13:56:41;3.53;;;1.08;;
74894;SDS011;63447;49.446;8.666;2022-10-23T13:59:07;5.63;;;1.00;;
74894;SDS011;63447;49.446;8.666;2022-10-23T14:01:36;3.90;;;1.00;;
74894;SDS011;63447;49.446;8.666;2022-10-23T14:04:02;3.90;;;1.00;;
74894;SDS011;63447;49.446;8.666;2022-10-23T14:06:29;5.28;;;1.23;;
74894;SDS011;63447;49.446;8.666;2022-10-23T14:08:55;5.95;;;1.70;;
74894;SDS011;63447;49.446;8.666;2022-10-23T14:11:21;6.35;;;1.40;;
74894;SDS011;63447;49.446;8.666;2022-10-23T14:13:50;4.68;;;1.35;;
74894;SDS011;63447;49.446;8.666;2022-10-23T14:16:17;5.40;;;1.35;;
74894;SDS011;63447;49.446;8.666;2022-10-23T14:18:44;4.82;;;1.20;;
74894;SDS011;63447;49.446;8.666;2022-10-23T14:21:10;5.35;;;1.00;;
74894;SDS011;63447;49.446;8.666;2022-10-23T14:23:37;5.55;;;1.02;;
74894;SDS011;63447;49.446;8.666;2022-10-23T14:26:07;3.63;;;1.08;;
74894;SDS011;63447;49.446;8.666;2022-10-23T14:28:34;6.13;;;1.38;;
74894;SDS011;63447;49.446;8.666;2022-10-23T14:31:10;7.00;;;1.50;;
74894;SDS011;63447;49.446;8.666;2022-10-23T14:33:37;6.03;;;1.80;;
74894;SDS011;63447;49.446;8.666;2022-10-23T14:36:03;11.07;;;2.70;;
74894;SDS011;63447;49.446;8.666;2022-10-23T14:38:31;6.10;;;1.40;;
74894;SDS011;63447;49.446;8.666;2022-10-23T14:40:57;7.03;;;1.65;;
74894;SDS011;63447;49.446;8.666;2022-10-23T14:43:23;6.15;;;1.38;;
74894;SDS011;63447;49.446;8.666;2022-10-23T14:45:48;8.35;;;1.60;;
74894;SDS011;63447;49.446;8.666;2022-10-23T14:48:16;6.13;;;1.60;;
74894;SDS011;63447;49.446;8.666;2022-10-23T14:50:42;7.70;;;1.35;;
74894;SDS011;63447;49.446;8.666;2022-10-23T14:53:09;8.70;;;1.92;;
74894;SDS011;63447;49.446;8.666;2022-10-23T14:55:37;8.90;;;1.60;;
74894;SDS011;63447;49.446;8.666;2022-10-23T14:58:04;5.68;;;1.40;;
74894;SDS011;63447;49.446;8.666;2022-10-23T15:00:32;4.18;;;1.52;;
74894;SDS011;63447;49.446;8.666;2022-10-23T15:02:58;6.03;;;1.23;;
74894;SDS011;63447;49.446;8.666;2022-10-23T15:05:23;6.70;;;1.30;;
74894;SDS011;63447;49.446;8.666;2022-10-23T15:07:49;8.27;;;1.98;;
74894;SDS011;63447;49.446;8.666;2022-10-23T15:10:14;5.20;;;1.73;;
74894;SDS011;63447;49.446;8.666;2022-10-23T15:12:40;6.85;;;1.80;;
74894;SDS011;63447;49.446;8.666;2022-10-23T15:15:05;7.20;;;1.80;;
74894;SDS011;63447;49.446;8.666;2022-10-23T15:17:34;5.13;;;1.30;;
74894;SDS011;63447;49.446;8.666;2022-10-23T15:20:03;5.65;;;1.70;;
74894;SDS011;63447;49.446;8.666;2022-10-23T15:22:31;5.10;;;1.60;;
74894;SDS011;63447;49.446;8.666;2022-10-23T15:24:56;8.52;;;1.83;;
74894;SDS011;63447;49.446;8.666;2022-10-23T15:27:21;9.43;;;1.97;;
74894;SDS011;63447;49.446;8.666;2022-10-23T15:29:47;5.70;;;1.77;;
74894;SDS011;63447;49.446;8.666;2022-10-23T15:32:12;6.60;;;1.75;;
74894;SDS011;63447;49.446;8.666;2022-10-23T15:34:38;6.50;;;1.60;;
74894;SDS011;63447;49.446;8.666;2022-10-23T15:37:06;6.85;;;1.65;;
74894;SDS011;63447;49.446;8.666;2022-10-23T15:39:35;8.40;;;1.67;;
74894;SDS011;63447;49.446;8.666;2022-10-23T15:42:01;9.33;;;2.00;;
74894;SDS011;63447;49.446;8.666;2022-10-23T15:44:30;9.20;;;2.00;;
74894;SDS011;63447;49.446;8.666;2022-10-23T15:46:57;12.52;;;2.28;;
74894;SDS011;63447;49.446;8.666;2022-10-23T15:49:24;6.28;;;1.67;;
74894;SDS011;63447;49.446;8.666;2022-10-23T15:51:53;8.60;;;2.03;;
74894;SDS011;63447;49.446;8.666;2022-10-23T15:54:18;7.13;;;1.63;;
74894;SDS011;63447;49.446;8.666;2022-10-23T15:56:44;5.43;;;1.50;;
74894;SDS011;63447;49.446;8.666;2022-10-23T15:59:12;7.38;;;2.35;;
74894;SDS011;63447;49.446;8.666;2022-10-23T16:01:38;8.15;;;1.92;;
74894;SDS011;63447;49.446;8.666;2022-10-23T16:04:03;6.85;;;1.92;;
74894;SDS011;63447;49.446;8.666;2022-10-23T16:06:31;7.75;;;1.95;;
74894;SDS011;63447;49.446;8.666;2022-10-23T16:08:56;7.28;;;1.90;;
74894;SDS011;63447;49.446;8.666;2022-10-23T16:11:27;9.10;;;2.05;;
74894;SDS011;63447;49.446;8.666;2022-10-23T16:13:55;10.05;;;2.17;;
74894;SDS011;63447;49.446;8.666;2022-10-23T16:16:22;11.35;;;4.78;;
74894;SDS011;63447;49.446;8.666;2022-10-23T16:18:49;7.38;;;1.80;;
74894;SDS011;63447;49.446;8.666;2022-10-23T16:21:25;8.57;;;1.80;;
74894;SDS011;63447;49.446;8.666;2022-10-23T16:23:55;7.55;;;1.60;;
74894;SDS011;63447;49.446;8.666;2022-10-23T16:26:22;6.75;;;1.67;;
74894;SDS011;63447;49.446;8.666;2022-10-23T16:28:54;7.30;;;1.95;;
74894;SDS011;63447;49.446;8.666;2022-10-23T16:31:22;7.25;;;1.60;;
74894;SDS011;63447;49.446;8.666;2022-10-23T16:33:51;9.70;;;1.95;;
74894;SDS011;63447;49.446;8.666;2022-10-23T16:36:17;9.20;;;2.00;;
74894;SDS011;63447;49.446;8.666;2022-10-23T16:38:42;8.05;;;2.05;;
74894;SDS011;63447;49.446;8.666;2022-10-23T16:41:08;12.70;;;1.90;;
74894;SDS011;63447;49.446;8.666;2022-10-23T16:43:35;11.70;;;1.75;;
74894;SDS011;63447;49.446;8.666;2022-10-23T16:48:33;8.52;;;1.90;;
74894;SDS011;63447;49.446;8.666;2022-10-23T16:51:07;9.30;;;1.90;;
74894;SDS011;63447;49.446;8.666;2022-10-23T16:53:34;7.65;;;1.63;;
74894;SDS011;63447;49.446;8.666;2022-10-23T16:56:02;7.18;;;1.90;;
74894;SDS011;63447;49.446;8.666;2022-10-23T16:58:28;7.00;;;1.70;;
74894;SDS011;63447;49.446;8.666;2022-10-23T17:03:26;9.40;;;1.70;;
74894;SDS011;63447;49.446;8.666;2022-10-23T17:05:52;7.50;;;1.55;;
74894;SDS011;63447;49.446;8.666;2022-10-23T17:08:18;7.93;;;2.00;;
74894;SDS011;63447;49.446;8.666;2022-10-23T17:10:43;9.02;;;2.50;;
74894;SDS011;63447;49.446;8.666;2022-10-23T17:13:09;8.30;;;2.10;;
74894;SDS011;63447;49.446;8.666;2022-10-23T17:15:36;5.22;;;1.40;;
74894;SDS011;63447;49.446;8.666;2022-10-23T17:18:02;6.40;;;1.60;;
74894;SDS011;63447;49.446;8.666;2022-10-23T17:20:27;7.33;;;1.70;;
74894;SDS011;63447;49.446;8.666;2022-10-23T17:22:55;5.47;;;1.50;;
74894;SDS011;63447;49.446;8.666;2022-10-23T17:25:20;6.87;;;1.60;;
74894;SDS011;63447;49.446;8.666;2022-10-23T17:27:45;8.53;;;1.90;;
74894;SDS011;63447;49.446;8.666;2022-10-23T17:30:13;6.30;;;1.83;;
74894;SDS011;63447;49.446;8.666;2022-10-23T17:32:41;7.15;;;1.67;;